Sommer S — WDG3830 — position and weather

sailwx.info

Track history (hours):
 
Tides and Currents Weather Stations Pressure Air Temp Water Temp Dewpoint Dewpoint Depression Visibility Wind Speed Wind Dir Waves Ship Positions

Sommer S

Owner: Shaver Transportation Company, Portland, OR. More information available from US FCC via Universal Licensing System and Coast Guard Vessel Documentation Center.

Last reported at 2015-Feb-26 14:06 UTC. Time now 2015-Feb-28 20:48 UTC.
Position N 46°16' W 123°27'.

Length 25 m.

Type: Tug. MMSI: 367530080.

Date/timePositionNaut miles runAvg speedWind from/ knotsBaromVisibWave heightAir tempDewpointWater temp
2015-Feb-26 14:06N 46°16' W 123°27'4 7.7
2015-Feb-26 13:33N 46°15' W 123°34'9 8.9
2015-Feb-26 12:33N 46°13' W 123°46'7 7.0
2015-Feb-26 11:33N 46°12' W 123°56'6 5.7
2015-Feb-26 10:31N 46°12' W 123°47'0 0.1
2015-Feb-26 09:33N 46°12' W 123°47'0 0.0
2015-Feb-26 08:33N 46°12' W 123°47'1 0.8
2015-Feb-26 07:33N 46°13' W 123°46'1312.4
2015-Feb-26 06:30N 46°16' W 123°28'  
2015-Feb-18 11:22N 46°16' W 123°33'7 8.1
2015-Feb-18 10:30N 46°14' W 123°43'7 7.0
2015-Feb-18 09:33N 46°12' W 123°51'0 0.4
2015-Feb-18 08:33N 46°11' W 123°52'0 0.0
2015-Feb-18 07:33N 46°11' W 123°52'3 3.4
2015-Feb-18 06:33N 46°13' W 123°47'1 0.9
2015-Feb-18 05:33N 46°13' W 123°46'10 9.8
2015-Feb-18 04:30N 46°16' W 123°32'  
Track history (hours):
 
Tides and Currents Weather Stations Pressure Air Temp Water Temp Dewpoint Dewpoint Depression Visibility Wind Speed Wind Dir Waves Ship Positions

Sommer S

Owner: Shaver Transportation Company, Portland, OR. More information available from US FCC via Universal Licensing System and Coast Guard Vessel Documentation Center.

Last reported at 2015-Feb-26 14:06 UTC. Time now 2015-Feb-28 20:48 UTC.
Position N 46°16' W 123°27'.

Length 25 m.

Type: Tug. MMSI: 367530080.

Date/timePositionNaut miles runAvg speedWind from/ knotsBaromVisibWave heightAir tempDewpointWater temp
2015-Feb-26 14:06N 46°16' W 123°27'4 7.7
2015-Feb-26 13:33N 46°15' W 123°34'9 8.9
2015-Feb-26 12:33N 46°13' W 123°46'7 7.0
2015-Feb-26 11:33N 46°12' W 123°56'6 5.7
2015-Feb-26 10:31N 46°12' W 123°47'0 0.1
2015-Feb-26 09:33N 46°12' W 123°47'0 0.0
2015-Feb-26 08:33N 46°12' W 123°47'1 0.8
2015-Feb-26 07:33N 46°13' W 123°46'1312.4
2015-Feb-26 06:30N 46°16' W 123°28'  
2015-Feb-18 11:22N 46°16' W 123°33'7 8.1
2015-Feb-18 10:30N 46°14' W 123°43'7 7.0
2015-Feb-18 09:33N 46°12' W 123°51'0 0.4
2015-Feb-18 08:33N 46°11' W 123°52'0 0.0
2015-Feb-18 07:33N 46°11' W 123°52'3 3.4
2015-Feb-18 06:33N 46°13' W 123°47'1 0.9
2015-Feb-18 05:33N 46°13' W 123°46'10 9.8
2015-Feb-18 04:30N 46°16' W 123°32'  

Dump ship's entire track history